sensor_id;sensor_type;location;lat;lon;timestamp;temperature;humidity
29281;DHT22;25048;49.590;11.026;2024-02-21T00:01:26;6.50;99.90
29281;DHT22;25048;49.590;11.026;2024-02-21T00:03:54;6.50;99.90
29281;DHT22;25048;49.590;11.026;2024-02-21T00:06:21;6.50;99.90
29281;DHT22;25048;49.590;11.026;2024-02-21T00:08:49;6.50;99.90
29281;DHT22;25048;49.590;11.026;2024-02-21T00:11:17;6.50;99.90
29281;DHT22;25048;49.590;11.026;2024-02-21T00:13:44;6.40;99.90
29281;DHT22;25048;49.590;11.026;2024-02-21T00:16:12;6.40;99.90
29281;DHT22;25048;49.590;11.026;2024-02-21T00:18:41;6.40;99.90
29281;DHT22;25048;49.590;11.026;2024-02-21T00:21:08;6.30;99.90
29281;DHT22;25048;49.590;11.026;2024-02-21T00:23:38;6.20;99.90
29281;DHT22;25048;49.590;11.026;2024-02-21T00:26:05;6.20;99.90
29281;DHT22;25048;49.590;11.026;2024-02-21T00:28:34;6.20;99.90
29281;DHT22;25048;49.590;11.026;2024-02-21T00:31:01;6.20;99.90
29281;DHT22;25048;49.590;11.026;2024-02-21T00:33:29;6.20;99.90
29281;DHT22;25048;49.590;11.026;2024-02-21T00:35:56;6.20;99.90
29281;DHT22;25048;49.590;11.026;2024-02-21T00:38:24;6.20;99.90
29281;DHT22;25048;49.590;11.026;2024-02-21T00:40:51;6.20;99.90
29281;DHT22;25048;49.590;11.026;2024-02-21T00:43:19;6.20;99.90
29281;DHT22;25048;49.590;11.026;2024-02-21T00:45:48;6.20;99.90
29281;DHT22;25048;49.590;11.026;2024-02-21T00:48:15;6.20;99.90
29281;DHT22;25048;49.590;11.026;2024-02-21T00:50:44;6.20;99.90
29281;DHT22;25048;49.590;11.026;2024-02-21T00:53:11;6.20;99.90
29281;DHT22;25048;49.590;11.026;2024-02-21T00:55:39;6.20;99.90
29281;DHT22;25048;49.590;11.026;2024-02-21T00:58:07;6.30;99.90
29281;DHT22;25048;49.590;11.026;2024-02-21T01:00:34;6.30;99.90
29281;DHT22;25048;49.590;11.026;2024-02-21T01:03:02;6.30;99.90
29281;DHT22;25048;49.590;11.026;2024-02-21T01:05:29;6.30;99.90
29281;DHT22;25048;49.590;11.026;2024-02-21T01:07:57;6.30;99.90
29281;DHT22;25048;49.590;11.026;2024-02-21T01:10:24;6.30;99.90
29281;DHT22;25048;49.590;11.026;2024-02-21T01:12:52;6.30;99.90
29281;DHT22;25048;49.590;11.026;2024-02-21T01:15:20;6.40;99.90
29281;DHT22;25048;49.590;11.026;2024-02-21T01:17:48;6.40;99.90
29281;DHT22;25048;49.590;11.026;2024-02-21T01:20:17;6.40;99.90
29281;DHT22;25048;49.590;11.026;2024-02-21T01:22:44;6.40;99.90
29281;DHT22;25048;49.590;11.026;2024-02-21T01:25:12;6.50;99.90
29281;DHT22;25048;49.590;11.026;2024-02-21T01:27:39;6.50;99.90
29281;DHT22;25048;49.590;11.026;2024-02-21T01:30:07;6.50;99.90
29281;DHT22;25048;49.590;11.026;2024-02-21T01:32:37;6.50;99.90
29281;DHT22;25048;49.590;11.026;2024-02-21T01:35:04;6.50;99.90
29281;DHT22;25048;49.590;11.026;2024-02-21T01:37:32;6.50;99.90
29281;DHT22;25048;49.590;11.026;2024-02-21T01:39:59;6.60;99.90
29281;DHT22;25048;49.590;11.026;2024-02-21T01:42:29;6.60;99.90
29281;DHT22;25048;49.590;11.026;2024-02-21T01:44:56;6.50;99.90
29281;DHT22;25048;49.590;11.026;2024-02-21T01:47:24;6.50;99.90
29281;DHT22;25048;49.590;11.026;2024-02-21T01:49:51;6.50;99.90
29281;DHT22;25048;49.590;11.026;2024-02-21T01:52:19;6.40;99.90
29281;DHT22;25048;49.590;11.026;2024-02-21T01:54:47;6.40;99.90
29281;DHT22;25048;49.590;11.026;2024-02-21T01:57:15;6.40;99.90
29281;DHT22;25048;49.590;11.026;2024-02-21T01:59:42;6.50;99.90
29281;DHT22;25048;49.590;11.026;2024-02-21T02:02:10;6.50;99.90
29281;DHT22;25048;49.590;11.026;2024-02-21T02:04:39;6.50;99.90
29281;DHT22;25048;49.590;11.026;2024-02-21T02:07:07;6.40;99.90
29281;DHT22;25048;49.590;11.026;2024-02-21T02:09:35;6.40;99.90
29281;DHT22;25048;49.590;11.026;2024-02-21T02:12:02;6.50;99.90
29281;DHT22;25048;49.590;11.026;2024-02-21T02:14:30;6.50;99.90
29281;DHT22;25048;49.590;11.026;2024-02-21T02:16:58;6.50;99.90
29281;DHT22;25048;49.590;11.026;2024-02-21T02:19:25;6.50;99.90
29281;DHT22;25048;49.590;11.026;2024-02-21T02:22:00;6.50;99.90
29281;DHT22;25048;49.590;11.026;2024-02-21T02:24:26;6.50;99.90
29281;DHT22;25048;49.590;11.026;2024-02-21T02:26:54;6.50;99.90
29281;DHT22;25048;49.590;11.026;2024-02-21T02:29:21;6.50;99.90
29281;DHT22;25048;49.590;11.026;2024-02-21T02:31:49;6.50;99.90
29281;DHT22;25048;49.590;11.026;2024-02-21T02:34:17;6.50;99.90
29281;DHT22;25048;49.590;11.026;2024-02-21T02:36:44;6.50;99.90
29281;DHT22;25048;49.590;11.026;2024-02-21T02:39:12;6.50;99.90
29281;DHT22;25048;49.590;11.026;2024-02-21T02:41:40;6.50;99.90
29281;DHT22;25048;49.590;11.026;2024-02-21T02:44:07;6.40;99.90
29281;DHT22;25048;49.590;11.026;2024-02-21T02:46:35;6.40;99.90
29281;DHT22;25048;49.590;11.026;2024-02-21T02:49:02;6.40;99.90
29281;DHT22;25048;49.590;11.026;2024-02-21T02:51:30;6.30;99.90
29281;DHT22;25048;49.590;11.026;2024-02-21T02:53:57;6.40;99.90
29281;DHT22;25048;49.590;11.026;2024-02-21T02:56:25;6.40;99.90
29281;DHT22;25048;49.590;11.026;2024-02-21T02:58:52;6.30;99.90
29281;DHT22;25048;49.590;11.026;2024-02-21T03:01:20;6.30;99.90
29281;DHT22;25048;49.590;11.026;2024-02-21T03:03:47;6.30;99.90
29281;DHT22;25048;49.590;11.026;2024-02-21T03:06:15;6.20;99.90
29281;DHT22;25048;49.590;11.026;2024-02-21T03:08:42;6.20;99.90
29281;DHT22;25048;49.590;11.026;2024-02-21T03:11:10;6.20;99.90
29281;DHT22;25048;49.590;11.026;2024-02-21T03:13:37;6.20;99.90
29281;DHT22;25048;49.590;11.026;2024-02-21T03:16:05;6.20;99.90
29281;DHT22;25048;49.590;11.026;2024-02-21T03:18:32;6.20;99.90
29281;DHT22;25048;49.590;11.026;2024-02-21T03:21:00;6.20;99.90
29281;DHT22;25048;49.590;11.026;2024-02-21T03:23:27;6.20;99.90
29281;DHT22;25048;49.590;11.026;2024-02-21T03:25:55;6.20;99.90
29281;DHT22;25048;49.590;11.026;2024-02-21T03:28:22;6.20;99.90
29281;DHT22;25048;49.590;11.026;2024-02-21T03:30:50;6.20;99.90
29281;DHT22;25048;49.590;11.026;2024-02-21T03:33:17;6.20;99.90
29281;DHT22;25048;49.590;11.026;2024-02-21T03:35:46;6.20;99.90
29281;DHT22;25048;49.590;11.026;2024-02-21T03:38:14;6.20;99.90
29281;DHT22;25048;49.590;11.026;2024-02-21T03:40:41;6.20;99.90
29281;DHT22;25048;49.590;11.026;2024-02-21T03:43:09;6.30;99.90
29281;DHT22;25048;49.590;11.026;2024-02-21T03:45:36;6.30;99.90
29281;DHT22;25048;49.590;11.026;2024-02-21T03:48:04;6.40;99.90
29281;DHT22;25048;49.590;11.026;2024-02-21T03:50:32;6.40;99.90
29281;DHT22;25048;49.590;11.026;2024-02-21T03:52:59;6.40;99.90
29281;DHT22;25048;49.590;11.026;2024-02-21T03:55:27;6.40;99.90
29281;DHT22;25048;49.590;11.026;2024-02-21T03:57:54;6.40;99.90
29281;DHT22;25048;49.590;11.026;2024-02-21T04:00:22;6.40;99.90
29281;DHT22;25048;49.590;11.026;2024-02-21T04:02:50;6.40;99.90
29281;DHT22;25048;49.590;11.026;2024-02-21T04:05:18;6.30;99.90
29281;DHT22;25048;49.590;11.026;2024-02-21T04:07:45;6.30;99.90
29281;DHT22;25048;49.590;11.026;2024-02-21T04:10:13;6.20;99.90
29281;DHT22;25048;49.590;11.026;2024-02-21T04:12:40;6.20;99.90
29281;DHT22;25048;49.590;11.026;2024-02-21T04:15:08;6.10;99.90
29281;DHT22;25048;49.590;11.026;2024-02-21T04:17:36;6.00;99.90
29281;DHT22;25048;49.590;11.026;2024-02-21T04:20:05;6.00;99.90
29281;DHT22;25048;49.590;11.026;2024-02-21T04:22:34;5.90;99.90
29281;DHT22;25048;49.590;11.026;2024-02-21T04:25:02;5.90;99.90
29281;DHT22;25048;49.590;11.026;2024-02-21T04:27:29;5.80;99.90
29281;DHT22;25048;49.590;11.026;2024-02-21T04:29:57;5.80;99.90
29281;DHT22;25048;49.590;11.026;2024-02-21T04:32:24;5.80;99.90
29281;DHT22;25048;49.590;11.026;2024-02-21T04:34:54;5.70;99.90
29281;DHT22;25048;49.590;11.026;2024-02-21T04:37:21;5.70;99.90
29281;DHT22;25048;49.590;11.026;2024-02-21T04:39:49;5.70;99.90
29281;DHT22;25048;49.590;11.026;2024-02-21T04:42:17;5.70;99.90
29281;DHT22;25048;49.590;11.026;2024-02-21T04:44:44;5.70;99.90
29281;DHT22;25048;49.590;11.026;2024-02-21T04:47:12;5.70;99.90
29281;DHT22;25048;49.590;11.026;2024-02-21T04:49:39;5.70;99.90
29281;DHT22;25048;49.590;11.026;2024-02-21T04:52:07;5.70;99.90
29281;DHT22;25048;49.590;11.026;2024-02-21T04:54:34;5.70;99.90
29281;DHT22;25048;49.590;11.026;2024-02-21T04:57:02;5.60;99.90
29281;DHT22;25048;49.590;11.026;2024-02-21T04:59:29;5.60;99.90
29281;DHT22;25048;49.590;11.026;2024-02-21T05:01:57;5.60;99.90
29281;DHT22;25048;49.590;11.026;2024-02-21T05:04:25;5.50;99.90
29281;DHT22;25048;49.590;11.026;2024-02-21T05:06:52;5.40;99.90
29281;DHT22;25048;49.590;11.026;2024-02-21T05:09:21;5.40;99.90
29281;DHT22;25048;49.590;11.026;2024-02-21T05:11:48;5.30;99.90
29281;DHT22;25048;49.590;11.026;2024-02-21T05:14:16;5.30;99.90
29281;DHT22;25048;49.590;11.026;2024-02-21T05:16:44;5.20;99.90
29281;DHT22;25048;49.590;11.026;2024-02-21T05:19:11;5.20;99.90
29281;DHT22;25048;49.590;11.026;2024-02-21T05:21:39;5.10;99.90
29281;DHT22;25048;49.590;11.026;2024-02-21T05:24:06;5.10;99.90
29281;DHT22;25048;49.590;11.026;2024-02-21T05:26:34;5.10;99.90
29281;DHT22;25048;49.590;11.026;2024-02-21T05:29:01;5.00;99.90
29281;DHT22;25048;49.590;11.026;2024-02-21T05:31:42;5.00;99.90
29281;DHT22;25048;49.590;11.026;2024-02-21T05:33:59;4.90;99.90
29281;DHT22;25048;49.590;11.026;2024-02-21T05:36:28;4.90;99.90
29281;DHT22;25048;49.590;11.026;2024-02-21T05:38:56;4.90;99.90
29281;DHT22;25048;49.590;11.026;2024-02-21T05:41:24;4.80;99.90
29281;DHT22;25048;49.590;11.026;2024-02-21T05:43:51;4.80;99.90
29281;DHT22;25048;49.590;11.026;2024-02-21T05:46:22;4.80;99.90
29281;DHT22;25048;49.590;11.026;2024-02-21T05:48:49;4.70;99.90
29281;DHT22;25048;49.590;11.026;2024-02-21T05:51:17;4.80;99.90
29281;DHT22;25048;49.590;11.026;2024-02-21T05:53:44;4.80;99.90
29281;DHT22;25048;49.590;11.026;2024-02-21T05:56:13;4.80;99.90
29281;DHT22;25048;49.590;11.026;2024-02-21T05:58:41;4.70;99.90
29281;DHT22;25048;49.590;11.026;2024-02-21T06:01:08;4.70;99.90
29281;DHT22;25048;49.590;11.026;2024-02-21T06:03:36;4.60;99.90
29281;DHT22;25048;49.590;11.026;2024-02-21T06:06:04;4.60;99.90
29281;DHT22;25048;49.590;11.026;2024-02-21T06:08:31;4.60;99.90
29281;DHT22;25048;49.590;11.026;2024-02-21T06:10:59;4.50;99.90
29281;DHT22;25048;49.590;11.026;2024-02-21T06:13:26;4.50;99.90
29281;DHT22;25048;49.590;11.026;2024-02-21T06:15:54;4.50;99.90
29281;DHT22;25048;49.590;11.026;2024-02-21T06:18:22;4.40;99.90
29281;DHT22;25048;49.590;11.026;2024-02-21T06:20:49;4.30;99.90
29281;DHT22;25048;49.590;11.026;2024-02-21T06:23:17;4.30;99.90
29281;DHT22;25048;49.590;11.026;2024-02-21T06:25:44;4.20;99.90
29281;DHT22;25048;49.590;11.026;2024-02-21T06:28:14;4.20;99.90
29281;DHT22;25048;49.590;11.026;2024-02-21T06:30:41;4.20;99.90
29281;DHT22;25048;49.590;11.026;2024-02-21T06:33:09;4.20;99.90
29281;DHT22;25048;49.590;11.026;2024-02-21T06:35:36;4.20;99.90
29281;DHT22;25048;49.590;11.026;2024-02-21T06:38:05;4.10;99.90
29281;DHT22;25048;49.590;11.026;2024-02-21T06:40:33;4.10;99.90
29281;DHT22;25048;49.590;11.026;2024-02-21T06:43:02;4.00;99.90
29281;DHT22;25048;49.590;11.026;2024-02-21T06:45:30;4.00;99.90
29281;DHT22;25048;49.590;11.026;2024-02-21T06:47:57;3.90;99.90
29281;DHT22;25048;49.590;11.026;2024-02-21T06:50:25;3.90;99.90
29281;DHT22;25048;49.590;11.026;2024-02-21T06:52:52;4.00;99.90
29281;DHT22;25048;49.590;11.026;2024-02-21T06:55:20;4.00;99.90
29281;DHT22;25048;49.590;11.026;2024-02-21T06:57:47;4.10;99.90
29281;DHT22;25048;49.590;11.026;2024-02-21T07:00:16;4.20;99.90
29281;DHT22;25048;49.590;11.026;2024-02-21T07:02:43;4.30;99.90
29281;DHT22;25048;49.590;11.026;2024-02-21T07:05:11;4.40;99.90
29281;DHT22;25048;49.590;11.026;2024-02-21T07:07:38;4.50;99.90
29281;DHT22;25048;49.590;11.026;2024-02-21T07:10:07;4.60;99.90
29281;DHT22;25048;49.590;11.026;2024-02-21T07:12:35;4.70;99.90
29281;DHT22;25048;49.590;11.026;2024-02-21T07:15:04;4.80;99.90
29281;DHT22;25048;49.590;11.026;2024-02-21T07:17:32;4.90;99.90
29281;DHT22;25048;49.590;11.026;2024-02-21T07:19:59;4.90;99.90
29281;DHT22;25048;49.590;11.026;2024-02-21T07:22:28;5.00;99.90
29281;DHT22;25048;49.590;11.026;2024-02-21T07:24:55;5.10;99.90
29281;DHT22;25048;49.590;11.026;2024-02-21T07:27:23;5.20;99.90
29281;DHT22;25048;49.590;11.026;2024-02-21T07:29:52;5.30;99.90
29281;DHT22;25048;49.590;11.026;2024-02-21T07:32:20;5.40;99.90
29281;DHT22;25048;49.590;11.026;2024-02-21T07:34:47;5.50;99.90
29281;DHT22;25048;49.590;11.026;2024-02-21T07:37:15;5.60;99.90
29281;DHT22;25048;49.590;11.026;2024-02-21T07:39:42;5.80;99.90
29281;DHT22;25048;49.590;11.026;2024-02-21T07:42:09;6.00;99.90
29281;DHT22;25048;49.590;11.026;2024-02-21T07:44:37;6.20;99.90
29281;DHT22;25048;49.590;11.026;2024-02-21T07:47:05;6.40;99.90
29281;DHT22;25048;49.590;11.026;2024-02-21T07:49:40;6.70;99.90
29281;DHT22;25048;49.590;11.026;2024-02-21T07:52:02;6.90;99.90
29281;DHT22;25048;49.590;11.026;2024-02-21T07:54:30;7.10;99.90
29281;DHT22;25048;49.590;11.026;2024-02-21T07:56:57;7.40;99.90
29281;DHT22;25048;49.590;11.026;2024-02-21T07:59:25;7.50;99.90
29281;DHT22;25048;49.590;11.026;2024-02-21T08:01:56;7.60;99.90
29281;DHT22;25048;49.590;11.026;2024-02-21T08:04:24;7.60;99.90
29281;DHT22;25048;49.590;11.026;2024-02-21T08:06:53;7.50;99.90
29281;DHT22;25048;49.590;11.026;2024-02-21T08:09:25;7.50;99.90
29281;DHT22;25048;49.590;11.026;2024-02-21T08:11:54;7.50;99.90
29281;DHT22;25048;49.590;11.026;2024-02-21T08:14:22;7.50;99.90
29281;DHT22;25048;49.590;11.026;2024-02-21T08:16:51;7.60;99.90
29281;DHT22;25048;49.590;11.026;2024-02-21T08:19:22;7.70;99.90
29281;DHT22;25048;49.590;11.026;2024-02-21T08:21:49;7.80;99.90
29281;DHT22;25048;49.590;11.026;2024-02-21T08:24:17;8.10;99.90
29281;DHT22;25048;49.590;11.026;2024-02-21T08:26:45;8.20;99.90
29281;DHT22;25048;49.590;11.026;2024-02-21T08:29:12;8.40;99.90
29281;DHT22;25048;49.590;11.026;2024-02-21T08:31:40;8.70;99.90
29281;DHT22;25048;49.590;11.026;2024-02-21T08:34:08;8.80;99.90
29281;DHT22;25048;49.590;11.026;2024-02-21T08:36:36;8.90;99.90
29281;DHT22;25048;49.590;11.026;2024-02-21T08:39:04;8.80;99.90
29281;DHT22;25048;49.590;11.026;2024-02-21T08:41:32;8.80;99.90
29281;DHT22;25048;49.590;11.026;2024-02-21T08:44:00;8.80;99.90
29281;DHT22;25048;49.590;11.026;2024-02-21T08:46:28;8.90;99.90
29281;DHT22;25048;49.590;11.026;2024-02-21T08:48:55;9.00;99.90
29281;DHT22;25048;49.590;11.026;2024-02-21T08:51:23;9.10;99.90
29281;DHT22;25048;49.590;11.026;2024-02-21T08:53:50;9.20;99.90
29281;DHT22;25048;49.590;11.026;2024-02-21T08:56:19;9.20;99.90
29281;DHT22;25048;49.590;11.026;2024-02-21T08:58:46;9.20;99.90
29281;DHT22;25048;49.590;11.026;2024-02-21T09:01:14;9.30;99.90
29281;DHT22;25048;49.590;11.026;2024-02-21T09:03:41;9.40;99.90
29281;DHT22;25048;49.590;11.026;2024-02-21T09:06:10;9.50;99.90
29281;DHT22;25048;49.590;11.026;2024-02-21T09:08:39;9.70;99.90
29281;DHT22;25048;49.590;11.026;2024-02-21T09:11:07;9.90;99.90
29281;DHT22;25048;49.590;11.026;2024-02-21T09:13:34;9.90;99.90
29281;DHT22;25048;49.590;11.026;2024-02-21T09:16:02;10.00;99.90
29281;DHT22;25048;49.590;11.026;2024-02-21T09:18:30;10.00;99.90
29281;DHT22;25048;49.590;11.026;2024-02-21T09:20:57;10.00;99.90
29281;DHT22;25048;49.590;11.026;2024-02-21T09:23:25;10.20;99.90
29281;DHT22;25048;49.590;11.026;2024-02-21T09:25:53;10.40;99.90
29281;DHT22;25048;49.590;11.026;2024-02-21T09:28:22;10.50;99.90
29281;DHT22;25048;49.590;11.026;2024-02-21T09:30:49;10.60;99.90
29281;DHT22;25048;49.590;11.026;2024-02-21T09:33:17;10.80;99.90
29281;DHT22;25048;49.590;11.026;2024-02-21T09:35:44;10.80;99.90
29281;DHT22;25048;49.590;11.026;2024-02-21T09:38:12;10.60;99.90
29281;DHT22;25048;49.590;11.026;2024-02-21T09:40:39;10.70;99.90
29281;DHT22;25048;49.590;11.026;2024-02-21T09:43:08;10.70;99.90
29281;DHT22;25048;49.590;11.026;2024-02-21T09:45:38;10.60;99.90
29281;DHT22;25048;49.590;11.026;2024-02-21T09:48:25;10.70;99.90
29281;DHT22;25048;49.590;11.026;2024-02-21T09:50:52;10.60;99.90
29281;DHT22;25048;49.590;11.026;2024-02-21T09:53:21;10.60;99.90
29281;DHT22;25048;49.590;11.026;2024-02-21T09:55:50;10.70;99.90
29281;DHT22;25048;49.590;11.026;2024-02-21T09:58:19;10.80;99.90
29281;DHT22;25048;49.590;11.026;2024-02-21T10:00:46;10.60;99.90
29281;DHT22;25048;49.590;11.026;2024-02-21T10:03:14;10.70;99.90
29281;DHT22;25048;49.590;11.026;2024-02-21T10:05:46;10.70;99.90
29281;DHT22;25048;49.590;11.026;2024-02-21T10:08:14;10.80;99.90
29281;DHT22;25048;49.590;11.026;2024-02-21T10:10:45;10.90;99.90
29281;DHT22;25048;49.590;11.026;2024-02-21T10:13:27;10.90;99.90
29281;DHT22;25048;49.590;11.026;2024-02-21T10:16:08;10.90;99.90
29281;DHT22;25048;49.590;11.026;2024-02-21T10:18:35;10.90;99.90
29281;DHT22;25048;49.590;11.026;2024-02-21T10:21:07;11.00;99.90
29281;DHT22;25048;49.590;11.026;2024-02-21T10:26:15;11.30;99.90
29281;DHT22;25048;49.590;11.026;2024-02-21T10:28:44;11.30;99.90
29281;DHT22;25048;49.590;11.026;2024-02-21T10:31:25;11.30;99.90
29281;DHT22;25048;49.590;11.026;2024-02-21T10:34:00;11.50;99.90
29281;DHT22;25048;49.590;11.026;2024-02-21T10:36:31;11.50;99.90
29281;DHT22;25048;49.590;11.026;2024-02-21T10:38:59;11.50;99.90
29281;DHT22;25048;49.590;11.026;2024-02-21T10:41:28;11.70;99.90
29281;DHT22;25048;49.590;11.026;2024-02-21T10:43:57;11.80;99.90
29281;DHT22;25048;49.590;11.026;2024-02-21T10:46:26;12.00;99.90
29281;DHT22;25048;49.590;11.026;2024-02-21T10:49:10;12.00;99.90
29281;DHT22;25048;49.590;11.026;2024-02-21T10:51:37;12.10;99.90
29281;DHT22;25048;49.590;11.026;2024-02-21T10:54:30;12.00;99.90
29281;DHT22;25048;49.590;11.026;2024-02-21T10:56:56;12.00;99.90
29281;DHT22;25048;49.590;11.026;2024-02-21T10:59:25;12.10;99.90
29281;DHT22;25048;49.590;11.026;2024-02-21T11:01:53;12.20;99.90
29281;DHT22;25048;49.590;11.026;2024-02-21T11:04:20;12.30;99.90
29281;DHT22;25048;49.590;11.026;2024-02-21T11:06:49;12.20;99.90
29281;DHT22;25048;49.590;11.026;2024-02-21T11:09:17;12.30;99.90
29281;DHT22;25048;49.590;11.026;2024-02-21T11:11:45;12.40;99.90
29281;DHT22;25048;49.590;11.026;2024-02-21T11:16:46;12.60;99.90
29281;DHT22;25048;49.590;11.026;2024-02-21T11:19:26;12.80;99.90
29281;DHT22;25048;49.590;11.026;2024-02-21T11:21:57;12.90;99.90
29281;DHT22;25048;49.590;11.026;2024-02-21T11:27:14;12.80;99.90
29281;DHT22;25048;49.590;11.026;2024-02-21T11:29:49;13.00;99.90
29281;DHT22;25048;49.590;11.026;2024-02-21T11:32:20;12.90;99.90
29281;DHT22;25048;49.590;11.026;2024-02-21T11:34:58;12.90;99.90
29281;DHT22;25048;49.590;11.026;2024-02-21T11:37:33;12.80;99.90
29281;DHT22;25048;49.590;11.026;2024-02-21T11:40:01;12.80;99.90
29281;DHT22;25048;49.590;11.026;2024-02-21T11:42:30;13.00;99.90
29281;DHT22;25048;49.590;11.026;2024-02-21T11:44:59;13.20;99.90
29281;DHT22;25048;49.590;11.026;2024-02-21T11:47:28;13.50;99.90
29281;DHT22;25048;49.590;11.026;2024-02-21T11:49:56;13.40;99.90
29281;DHT22;25048;49.590;11.026;2024-02-21T11:52:25;13.60;99.90
29281;DHT22;25048;49.590;11.026;2024-02-21T11:54:54;13.70;99.90
29281;DHT22;25048;49.590;11.026;2024-02-21T11:57:23;13.70;99.90
29281;DHT22;25048;49.590;11.026;2024-02-21T11:59:54;13.60;99.90
29281;DHT22;25048;49.590;11.026;2024-02-21T12:02:21;13.60;99.90
29281;DHT22;25048;49.590;11.026;2024-02-21T12:04:49;13.70;99.90
29281;DHT22;25048;49.590;11.026;2024-02-21T12:07:18;13.70;99.90
29281;DHT22;25048;49.590;11.026;2024-02-21T12:09:45;13.60;99.90
29281;DHT22;25048;49.590;11.026;2024-02-21T12:12:13;13.60;99.90
29281;DHT22;25048;49.590;11.026;2024-02-21T12:14:43;13.70;99.90
29281;DHT22;25048;49.590;11.026;2024-02-21T12:17:10;13.80;99.90
29281;DHT22;25048;49.590;11.026;2024-02-21T12:19:38;13.60;99.90
29281;DHT22;25048;49.590;11.026;2024-02-21T12:22:06;13.70;99.90
29281;DHT22;25048;49.590;11.026;2024-02-21T12:24:35;13.80;99.90
29281;DHT22;25048;49.590;11.026;2024-02-21T12:27:04;13.90;99.90
29281;DHT22;25048;49.590;11.026;2024-02-21T12:29:31;14.00;99.90
29281;DHT22;25048;49.590;11.026;2024-02-21T12:31:59;13.90;99.90
29281;DHT22;25048;49.590;11.026;2024-02-21T12:34:26;14.00;99.90
29281;DHT22;25048;49.590;11.026;2024-02-21T12:36:54;14.20;99.90
29281;DHT22;25048;49.590;11.026;2024-02-21T12:39:21;14.30;99.90
29281;DHT22;25048;49.590;11.026;2024-02-21T12:41:49;14.30;99.90
29281;DHT22;25048;49.590;11.026;2024-02-21T12:44:17;14.10;99.90
29281;DHT22;25048;49.590;11.026;2024-02-21T12:46:44;14.30;99.90
29281;DHT22;25048;49.590;11.026;2024-02-21T12:49:12;14.30;99.90
29281;DHT22;25048;49.590;11.026;2024-02-21T12:51:39;14.30;99.90
29281;DHT22;25048;49.590;11.026;2024-02-21T12:54:08;14.10;99.90
29281;DHT22;25048;49.590;11.026;2024-02-21T12:56:37;14.10;99.90
29281;DHT22;25048;49.590;11.026;2024-02-21T12:59:06;14.20;99.90
29281;DHT22;25048;49.590;11.026;2024-02-21T13:01:36;14.30;99.90
29281;DHT22;25048;49.590;11.026;2024-02-21T13:04:07;14.30;99.90
29281;DHT22;25048;49.590;11.026;2024-02-21T13:06:34;14.30;99.90
29281;DHT22;25048;49.590;11.026;2024-02-21T13:09:03;14.20;99.90
29281;DHT22;25048;49.590;11.026;2024-02-21T13:11:32;14.40;99.90
29281;DHT22;25048;49.590;11.026;2024-02-21T13:14:00;14.50;99.90
29281;DHT22;25048;49.590;11.026;2024-02-21T13:16:27;14.30;99.90
29281;DHT22;25048;49.590;11.026;2024-02-21T13:18:55;14.40;99.90
29281;DHT22;25048;49.590;11.026;2024-02-21T13:21:23;14.40;99.90
29281;DHT22;25048;49.590;11.026;2024-02-21T13:23:50;14.50;99.90
29281;DHT22;25048;49.590;11.026;2024-02-21T13:26:18;14.60;99.90
29281;DHT22;25048;49.590;11.026;2024-02-21T13:28:46;14.50;99.90
29281;DHT22;25048;49.590;11.026;2024-02-21T13:31:15;14.30;99.90
29281;DHT22;25048;49.590;11.026;2024-02-21T13:33:45;14.30;99.90
29281;DHT22;25048;49.590;11.026;2024-02-21T13:36:12;14.50;99.90
29281;DHT22;25048;49.590;11.026;2024-02-21T13:38:40;14.40;99.90
29281;DHT22;25048;49.590;11.026;2024-02-21T13:41:08;14.20;99.90
29281;DHT22;25048;49.590;11.026;2024-02-21T13:43:35;14.10;99.90
29281;DHT22;25048;49.590;11.026;2024-02-21T13:46:03;14.00;99.90
29281;DHT22;25048;49.590;11.026;2024-02-21T13:48:32;13.90;99.90
29281;DHT22;25048;49.590;11.026;2024-02-21T13:51:00;13.90;99.90
29281;DHT22;25048;49.590;11.026;2024-02-21T13:53:28;13.90;99.90
29281;DHT22;25048;49.590;11.026;2024-02-21T13:55:56;13.80;99.90
29281;DHT22;25048;49.590;11.026;2024-02-21T13:58:23;13.80;99.90
29281;DHT22;25048;49.590;11.026;2024-02-21T14:00:52;13.90;99.90
29281;DHT22;25048;49.590;11.026;2024-02-21T14:03:20;14.00;99.90
29281;DHT22;25048;49.590;11.026;2024-02-21T14:05:48;14.10;99.90
29281;DHT22;25048;49.590;11.026;2024-02-21T14:08:15;14.00;99.90
29281;DHT22;25048;49.590;11.026;2024-02-21T14:10:43;13.90;99.90
29281;DHT22;25048;49.590;11.026;2024-02-21T14:13:10;13.70;99.90
29281;DHT22;25048;49.590;11.026;2024-02-21T14:15:39;13.60;99.90
29281;DHT22;25048;49.590;11.026;2024-02-21T14:18:07;13.40;99.90
29281;DHT22;25048;49.590;11.026;2024-02-21T14:20:35;13.40;99.90
29281;DHT22;25048;49.590;11.026;2024-02-21T14:23:03;13.30;99.90
29281;DHT22;25048;49.590;11.026;2024-02-21T14:25:31;13.20;99.90
29281;DHT22;25048;49.590;11.026;2024-02-21T14:27:59;13.10;99.90
29281;DHT22;25048;49.590;11.026;2024-02-21T14:30:29;13.10;99.90
29281;DHT22;25048;49.590;11.026;2024-02-21T14:32:57;13.20;99.90
29281;DHT22;25048;49.590;11.026;2024-02-21T14:35:24;13.30;99.90
29281;DHT22;25048;49.590;11.026;2024-02-21T14:37:52;13.40;99.90
29281;DHT22;25048;49.590;11.026;2024-02-21T14:40:22;13.30;99.90
29281;DHT22;25048;49.590;11.026;2024-02-21T14:42:49;13.30;99.90
29281;DHT22;25048;49.590;11.026;2024-02-21T14:45:17;13.20;99.90
29281;DHT22;25048;49.590;11.026;2024-02-21T14:47:44;13.20;99.90
29281;DHT22;25048;49.590;11.026;2024-02-21T14:50:12;13.20;99.90
29281;DHT22;25048;49.590;11.026;2024-02-21T14:52:39;13.20;99.90
29281;DHT22;25048;49.590;11.026;2024-02-21T14:55:07;13.20;99.90
29281;DHT22;25048;49.590;11.026;2024-02-21T14:57:34;13.10;99.90
29281;DHT22;25048;49.590;11.026;2024-02-21T15:00:06;13.10;99.90
29281;DHT22;25048;49.590;11.026;2024-02-21T15:02:34;13.00;99.90
29281;DHT22;25048;49.590;11.026;2024-02-21T15:05:02;13.00;99.90
29281;DHT22;25048;49.590;11.026;2024-02-21T15:07:32;12.90;99.90
29281;DHT22;25048;49.590;11.026;2024-02-21T15:10:00;12.90;99.90
29281;DHT22;25048;49.590;11.026;2024-02-21T15:12:27;12.80;99.90
29281;DHT22;25048;49.590;11.026;2024-02-21T15:14:55;12.70;99.90
29281;DHT22;25048;49.590;11.026;2024-02-21T15:17:22;12.50;99.90
29281;DHT22;25048;49.590;11.026;2024-02-21T15:19:50;12.40;99.90
29281;DHT22;25048;49.590;11.026;2024-02-21T15:22:17;12.40;99.90
29281;DHT22;25048;49.590;11.026;2024-02-21T15:24:46;12.30;99.90
29281;DHT22;25048;49.590;11.026;2024-02-21T15:27:15;12.30;99.90
29281;DHT22;25048;49.590;11.026;2024-02-21T15:29:43;12.20;99.90
29281;DHT22;25048;49.590;11.026;2024-02-21T15:32:11;12.20;99.90
29281;DHT22;25048;49.590;11.026;2024-02-21T15:34:38;12.20;99.90
29281;DHT22;25048;49.590;11.026;2024-02-21T15:37:06;12.20;99.90
29281;DHT22;25048;49.590;11.026;2024-02-21T15:39:33;12.10;99.90